Canadian Cyclist Cervelo S2 24-7 2 - March 29
   Follow us on Twitter
 
Find us on Facebook
 
Wheels of Bloor - March 7
 
ACS Apollo Bikes - November 19
 
Williams Cycling March 28
 
IMBA Canada - Dec 14
 
Share the Road - Dec 14
 


 

 

 
Quebec tourism Banner CC - April 16
 

Daily News


 

August 29/02 11:11 am - 2002 Mountain Bike World Championships: Men's DH Seeding Results


Posted by Editoress on 08/29/02
 

2002 Mountain Bike World Championships Kaprun, Austria
Courtesy Tissot

Results from DH seeding runs

Elite Men
1. GRACIA, Cèdric (FRA)5:23.88
2. PASCAL, Mickael (FRA)5:24.09at 0.21
3. MISSER VILASECA, Tomas (ESP)5:27.873.99
4. HANNAH, Mick (AUS)5:27.894.01
5. KOVARIK, Chris (AUS)5:28.524.64
6. GRAVES, Jared (AUS)5:28.704.82
7. VOREIS, Kirt (USA)5:28.925.04
8. RENNIE, Nathan (AUS)5:31.077.19
9. ROJO VIDAL, Cesar (ESP)5:31.157.27
10. DE BEEVER, Bas (NED)5:31.247.36
11. WADDELL, John (AUS)5:31.537.65
12. SAIZ CASTANE, Oscar (ESP)5:32.408.52
13. KIRKCALDIE, John (NZL)5:32.548.66
14. OULEGO MORENO, Ivan (ESP)5:32.588.7
15. KLAUSSMANN, Markus (GER)5:35.01+ 11.13
16. MCCARROLL, Sean (AUS)5:35.05+ 11.17
17. LAGNEAU, Cyril (FRA)5:35.38+ 11.50
18. VAZQUEZ LOPEZ, David (ESP)5:36.40+ 12.52
19. CARRICK-ANDERSON, Crawford (GBR)5:36.65+ 12.77
20. GUARDIA PASCUAL, Bernat (ESP)5:37.08+ 13.20
21. ROCKWELL, Myles (USA)5:37.73+ 13.85
22. PEAT, Steve (GBR)5:38.08+ 14.20
23. SCHNEIDER, Frank (GER)5:39.02+ 15.14
24. CARTER, Eric (USA)5:39.54+ 15.66
25. ZANCHI, Bruno (ITA)5:39.95+ 16.07
26. BERCHTOLD, Markolf (BRA)5:40.17+ 16.29
27. ATHERTON, Dan (GBR)5:40.31+ 16.43
28. WARNER, Rob (GBR)5:41.04+ 17.16
29. POLC, Filip (SVK)5:41.43+ 17.55
30. HERIN, Corrado (ITA)5:41.61+ 17.73
31. RYSER, Thomas (SUI)5:43.22+ 19.34
32. CALUORI, Claudio (SUI)5:44.66+ 20.78
33. STEFFEN, Andreas (SUI)5:45.55+ 21.67
34. ADAMS, Dustin (CAN)5:46.09+ 22.21
35. THOLEN, Gert (NED)5:46.64+ 22.76
36. WILDHABER, Rene (SUI)5:47.77+ 23.89
37. SKOLINS, Zigmars (LAT)5:48.99+ 25.11
37. PETSCHENIG, Markus (AUT)5:48.99+ 25.11
39. HAAS, Matthias (AUT)5:49.36+ 25.48
40. VASQUEZ CID, Sebastian (CHI)5:49.41+ 25.53
41. VAGNER, Adam (CZE)5:49.88+ 26.00
42. POOMANS, Julien (FRA)5:50.04+ 26.16
43. LONGDEN, William (GBR)5:51.19+ 27.31
44. GOELLES, Michael (AUT)5:51.62+ 27.74
45. IDEGAWA, Naoki (JPN)5:52.28+ 28.40
46. O'BRIEN, Glyn (IRL)5:52.67+ 28.79
47. TSCHUGG, Guido (GER)5:53.19+ 29.31
48. DAL FITTO, Enrico (ITA)5:53.39+ 29.51
49. VAN DE HATERD, Wilfred (NED)5:54.90+ 31.02
50. LAWLOR, John (IRL)5:56.57+ 32.69
51. JOHNSEN, Espen (NOR)5:56.87+ 32.99
52. LAURIN, Mathieu (CAN)5:57.51+ 33.63
53. JAHNEL, Ruediger (AUT)5:58.44+ 34.56
54. MERMOUD, Daniel (SUI)5:59.28+ 35.40
55. LYON, Brant (CAN)5:59.45+ 35.57
56. ZBINDEN, Samuel (SUI)6:00.09+ 36.21
57. LANCASTER, Richard (USA)6:00.30+ 36.42
58. ZIELINSKI, Grzegorz (POL)6:00.85+ 36.97
59. VINK, Nico (BEL)6:02.22+ 38.34
60. DUARTE, Nuno (POR)6:02.65+ 38.77
60. ANTIC, Nino Mladen (CRO)6:02.65+ 38.77
62. FIDALGO, Marco (POR)6:03.75+ 39.87
63. HYNCICA, Vlastimil (CZE)6:04.23+ 40.35
64. MICHAL, Maros (CZE)6:04.92+ 41.04
65. HUGHES, Stuart (GBR)6:05.47+ 41.59
66. MICHAL, Sliwka (POL)6:05.82+ 41.94
67. JODKO, Maciej (POL)6:05.94+ 42.06
68. LENSSENS, Kristof (BEL)6:07.04+ 43.16
69. UCHIJIMA, Ryo (JPN)6:07.05+ 43.17
70. PORTER, Trevor (CAN)6:07.07+ 43.19
71. MALINEN, Visa (FIN)6:07.10+ 43.22
72. ROSS, Colin (IRL)6:07.30+ 43.42
73. SLIVNIK, Ctr-Bill (SLO)6:08.78+ 44.90
74. MARUYAMA, Hiroki (JPN)6:10.32+ 46.44
75. STANDER, Duane (RSA)6:10.79+ 46.91
76. YOONG, Andrew (IRL)6:10.89+ 47.01
77. JAMNIK, Janez (SLO)6:11.64+ 47.76
78. KOIVISTO, Juhana (FIN)6:14.02+ 50.14
79. HANSEN, Trond (NOR)6:15.07+ 51.19
80. JONES, Mike (CAN)6:16.91+ 53.03
81. OSIS, Gundars (LAT)6:17.02+ 53.14
82. CILLIK, Filip (SVK)6:17.41+ 53.53
83. SYRZIYSTIE, Szymon (POL)6:19.16+ 55.28
84. PENDREL, Geoff (CAN)6:20.10+ 56.22
85. ECHEVERRIA, Diego (CHI)6:21.47+ 57.59
86. TUUNAINEN, Aku (FIN)6:21.71+ 57.83
87. MARTINSCHITZ, Walter (AUT)6:22.11+ 58.23
88. GULYAS, Mihaly (HUN)6:23.15+ 59.27
89. KEPPLER, Shaun (RSA)6:23.30+ 59.42
90. CEMAN, Stefan (SVK)6:32.02+1:08.14
91. MICHAL, Cervenka (CZE)6:35.36+1:11.48
92. VAN VALKENHOEF, Koen (NED)6:39.05+1:15.17
93. MIETTINEN, Kalle (FIN)6:47.05+1:23.17
94. RADOSLAV, Kuldjiev (BUL)6:57.14+1:33.26
95. VORONIN, Oleg (RUS)6:57.65+1:33.77
96. GREK, Artiom (RUS)7:00.19+1:36.31
97. HALASZ, Krisztian (HUN)7:04.12+1:40.24
98. SAMLIK, Laur (EST)7:08.57+1:44.69
99. HILBERT, Max (LUX)7:15.94+1:52.06
100. PUIG, Camilo (CHI)7:25.60+2:01.72
101. MAAS, Frank (LUX)7:32.95+2:09.07
102. STOICA, Adrian (ROU)7:38.36+2:14.48
103. TEPPO, Viljar (EST)7:44.10+2:20.22
104. STANILA, George (ROU)7:47.52+2:23.64
105. NIKOLAY, Titev (BUL)7:52.64+2:28.76
106. VOUILLOZ, Nicolas (FRA)8:41.34+3:17.46
MINNAAR, Greg (RSA)DNS
BAREL, Fabien (FRA)DNS
LEDUC, Todd (USA)DNS
POSSMAN, Johan (SWE)DNS
GONZALEZ SALVADOR, Roger (ESP)DNS
JOCH, Petr (CZE)DNS
BENOIT PLANELLA, Gabriel (CHI)DNS




 


Return to Canadian Cyclist homepage | Back to Top
D'Ornellas (+4767) - July 20
 
Norco Tactic - April 1
 

 
BikeSports - November 17
 

 


 
Dundas Speed Shop - Jan 11 (+524)
 
  


 
 © Copyright 1998-2014 Canadian Cyclist. All rights reserved.  Privacy Policy | Contact | Subscribe to RSS Feed  | Login